sensor_id;sensor_type;location;lat;lon;timestamp;P1;durP1;ratioP1;P2;durP2;ratioP2
83707;SDS011;73692;49.562;11.144;2024-02-14T00:02:15;6.90;;;4.45;;
83707;SDS011;73692;49.562;11.144;2024-02-14T00:04:40;9.30;;;4.45;;
83707;SDS011;73692;49.562;11.144;2024-02-14T00:07:05;8.93;;;4.50;;
83707;SDS011;73692;49.562;11.144;2024-02-14T00:09:31;8.60;;;5.00;;
83707;SDS011;73692;49.562;11.144;2024-02-14T00:11:56;10.13;;;4.88;;
83707;SDS011;73692;49.562;11.144;2024-02-14T00:14:21;7.70;;;4.78;;
83707;SDS011;73692;49.562;11.144;2024-02-14T00:16:47;8.52;;;5.00;;
83707;SDS011;73692;49.562;11.144;2024-02-14T00:19:12;12.02;;;5.25;;
83707;SDS011;73692;49.562;11.144;2024-02-14T00:21:38;8.20;;;4.28;;
83707;SDS011;73692;49.562;11.144;2024-02-14T00:24:04;10.70;;;5.45;;
83707;SDS011;73692;49.562;11.144;2024-02-14T00:26:29;9.80;;;4.63;;
83707;SDS011;73692;49.562;11.144;2024-02-14T00:28:55;9.52;;;4.68;;
83707;SDS011;73692;49.562;11.144;2024-02-14T00:31:20;10.13;;;5.03;;
83707;SDS011;73692;49.562;11.144;2024-02-14T00:33:46;11.32;;;5.03;;
83707;SDS011;73692;49.562;11.144;2024-02-14T00:36:11;9.25;;;4.75;;
83707;SDS011;73692;49.562;11.144;2024-02-14T00:38:36;14.18;;;5.15;;
83707;SDS011;73692;49.562;11.144;2024-02-14T00:41:02;9.20;;;4.43;;
83707;SDS011;73692;49.562;11.144;2024-02-14T00:43:27;9.20;;;4.43;;
83707;SDS011;73692;49.562;11.144;2024-02-14T00:45:53;9.60;;;4.68;;
83707;SDS011;73692;49.562;11.144;2024-02-14T00:48:18;8.20;;;4.43;;
83707;SDS011;73692;49.562;11.144;2024-02-14T00:50:44;9.60;;;4.40;;
83707;SDS011;73692;49.562;11.144;2024-02-14T00:53:10;8.60;;;4.97;;
83707;SDS011;73692;49.562;11.144;2024-02-14T00:55:35;7.28;;;4.45;;
83707;SDS011;73692;49.562;11.144;2024-02-14T00:58:00;8.38;;;4.03;;
83707;SDS011;73692;49.562;11.144;2024-02-14T01:00:26;11.75;;;5.00;;
83707;SDS011;73692;49.562;11.144;2024-02-14T01:02:51;10.55;;;4.32;;
83707;SDS011;73692;49.562;11.144;2024-02-14T01:05:16;11.38;;;5.03;;
83707;SDS011;73692;49.562;11.144;2024-02-14T01:07:42;7.25;;;3.97;;
83707;SDS011;73692;49.562;11.144;2024-02-14T01:10:07;14.48;;;4.40;;
83707;SDS011;73692;49.562;11.144;2024-02-14T01:12:33;7.13;;;4.22;;
83707;SDS011;73692;49.562;11.144;2024-02-14T01:14:58;10.00;;;4.60;;
83707;SDS011;73692;49.562;11.144;2024-02-14T01:17:23;11.98;;;4.10;;
83707;SDS011;73692;49.562;11.144;2024-02-14T01:19:49;6.45;;;4.10;;
83707;SDS011;73692;49.562;11.144;2024-02-14T01:22:15;6.72;;;4.07;;
83707;SDS011;73692;49.562;11.144;2024-02-14T01:24:43;6.93;;;3.90;;
83707;SDS011;73692;49.562;11.144;2024-02-14T01:27:08;9.38;;;3.97;;
83707;SDS011;73692;49.562;11.144;2024-02-14T01:29:34;11.88;;;4.82;;
83707;SDS011;73692;49.562;11.144;2024-02-14T01:31:59;7.40;;;4.40;;
83707;SDS011;73692;49.562;11.144;2024-02-14T01:34:25;9.70;;;4.05;;
83707;SDS011;73692;49.562;11.144;2024-02-14T01:36:50;7.60;;;4.05;;
83707;SDS011;73692;49.562;11.144;2024-02-14T01:39:15;8.05;;;4.28;;
83707;SDS011;73692;49.562;11.144;2024-02-14T01:41:46;9.40;;;4.18;;
83707;SDS011;73692;49.562;11.144;2024-02-14T01:44:13;13.27;;;4.68;;
83707;SDS011;73692;49.562;11.144;2024-02-14T01:46:42;8.57;;;3.80;;
83707;SDS011;73692;49.562;11.144;2024-02-14T01:49:08;7.45;;;4.30;;
83707;SDS011;73692;49.562;11.144;2024-02-14T01:51:34;7.00;;;3.95;;
83707;SDS011;73692;49.562;11.144;2024-02-14T01:54:00;6.80;;;3.70;;
83707;SDS011;73692;49.562;11.144;2024-02-14T01:56:27;6.45;;;4.30;;
83707;SDS011;73692;49.562;11.144;2024-02-14T01:58:53;11.05;;;4.28;;
83707;SDS011;73692;49.562;11.144;2024-02-14T02:01:18;7.88;;;4.00;;
83707;SDS011;73692;49.562;11.144;2024-02-14T02:06:10;7.65;;;4.45;;
83707;SDS011;73692;49.562;11.144;2024-02-14T02:08:35;9.25;;;4.32;;
83707;SDS011;73692;49.562;11.144;2024-02-14T02:11:01;9.10;;;4.47;;
83707;SDS011;73692;49.562;11.144;2024-02-14T02:13:27;6.65;;;4.10;;
83707;SDS011;73692;49.562;11.144;2024-02-14T02:15:52;5.65;;;3.90;;
83707;SDS011;73692;49.562;11.144;2024-02-14T02:20:44;6.10;;;3.90;;
83707;SDS011;73692;49.562;11.144;2024-02-14T02:23:12;7.03;;;3.63;;
83707;SDS011;73692;49.562;11.144;2024-02-14T02:25:39;7.63;;;3.17;;
83707;SDS011;73692;49.562;11.144;2024-02-14T02:28:05;6.63;;;3.47;;
83707;SDS011;73692;49.562;11.144;2024-02-14T02:30:31;6.30;;;3.42;;
83707;SDS011;73692;49.562;11.144;2024-02-14T02:32:56;7.28;;;3.97;;
83707;SDS011;73692;49.562;11.144;2024-02-14T02:35:21;5.83;;;3.53;;
83707;SDS011;73692;49.562;11.144;2024-02-14T02:37:48;5.68;;;3.22;;
83707;SDS011;73692;49.562;11.144;2024-02-14T02:40:15;8.32;;;3.40;;
83707;SDS011;73692;49.562;11.144;2024-02-14T02:42:41;9.93;;;3.53;;
83707;SDS011;73692;49.562;11.144;2024-02-14T02:45:07;6.18;;;3.60;;
83707;SDS011;73692;49.562;11.144;2024-02-14T02:47:33;6.88;;;3.47;;
83707;SDS011;73692;49.562;11.144;2024-02-14T02:49:59;8.88;;;3.38;;
83707;SDS011;73692;49.562;11.144;2024-02-14T02:52:26;6.95;;;3.33;;
83707;SDS011;73692;49.562;11.144;2024-02-14T02:54:52;6.60;;;3.35;;
83707;SDS011;73692;49.562;11.144;2024-02-14T02:57:18;7.63;;;4.35;;
83707;SDS011;73692;49.562;11.144;2024-02-14T02:59:44;8.80;;;3.90;;
83707;SDS011;73692;49.562;11.144;2024-02-14T03:02:09;6.47;;;3.70;;
83707;SDS011;73692;49.562;11.144;2024-02-14T03:04:36;6.60;;;3.47;;
83707;SDS011;73692;49.562;11.144;2024-02-14T03:07:02;7.00;;;3.92;;
83707;SDS011;73692;49.562;11.144;2024-02-14T03:09:31;5.18;;;3.28;;
83707;SDS011;73692;49.562;11.144;2024-02-14T03:11:57;6.35;;;3.40;;
83707;SDS011;73692;49.562;11.144;2024-02-14T03:14:22;6.32;;;3.90;;
83707;SDS011;73692;49.562;11.144;2024-02-14T03:16:48;9.90;;;3.78;;
83707;SDS011;73692;49.562;11.144;2024-02-14T03:19:13;5.80;;;3.23;;
83707;SDS011;73692;49.562;11.144;2024-02-14T03:21:38;4.30;;;2.83;;
83707;SDS011;73692;49.562;11.144;2024-02-14T03:24:04;5.47;;;3.10;;
83707;SDS011;73692;49.562;11.144;2024-02-14T03:26:30;10.63;;;3.60;;
83707;SDS011;73692;49.562;11.144;2024-02-14T03:28:58;6.85;;;3.15;;
83707;SDS011;73692;49.562;11.144;2024-02-14T03:31:24;4.05;;;2.55;;
83707;SDS011;73692;49.562;11.144;2024-02-14T03:33:51;4.28;;;2.70;;
83707;SDS011;73692;49.562;11.144;2024-02-14T03:36:16;7.45;;;3.38;;
83707;SDS011;73692;49.562;11.144;2024-02-14T03:38:41;9.45;;;3.72;;
83707;SDS011;73692;49.562;11.144;2024-02-14T03:41:07;6.03;;;3.72;;
83707;SDS011;73692;49.562;11.144;2024-02-14T03:43:32;6.28;;;3.33;;
83707;SDS011;73692;49.562;11.144;2024-02-14T03:45:58;6.05;;;3.47;;
83707;SDS011;73692;49.562;11.144;2024-02-14T03:48:23;7.20;;;3.07;;
83707;SDS011;73692;49.562;11.144;2024-02-14T03:50:48;4.75;;;3.17;;
83707;SDS011;73692;49.562;11.144;2024-02-14T03:53:14;9.30;;;3.05;;
83707;SDS011;73692;49.562;11.144;2024-02-14T03:55:40;4.85;;;2.88;;
83707;SDS011;73692;49.562;11.144;2024-02-14T03:58:05;8.73;;;3.83;;
83707;SDS011;73692;49.562;11.144;2024-02-14T04:00:33;6.43;;;3.30;;
83707;SDS011;73692;49.562;11.144;2024-02-14T04:03:00;7.32;;;3.00;;
83707;SDS011;73692;49.562;11.144;2024-02-14T04:05:25;4.45;;;2.78;;
83707;SDS011;73692;49.562;11.144;2024-02-14T04:07:54;7.65;;;3.20;;
83707;SDS011;73692;49.562;11.144;2024-02-14T04:10:19;7.10;;;2.97;;
83707;SDS011;73692;49.562;11.144;2024-02-14T04:12:45;6.07;;;3.25;;
83707;SDS011;73692;49.562;11.144;2024-02-14T04:15:11;8.13;;;3.67;;
83707;SDS011;73692;49.562;11.144;2024-02-14T04:17:36;6.22;;;3.25;;
83707;SDS011;73692;49.562;11.144;2024-02-14T04:20:01;6.07;;;2.92;;
83707;SDS011;73692;49.562;11.144;2024-02-14T04:22:27;7.75;;;3.30;;
83707;SDS011;73692;49.562;11.144;2024-02-14T04:24:52;5.53;;;3.60;;
83707;SDS011;73692;49.562;11.144;2024-02-14T04:27:18;6.97;;;3.80;;
83707;SDS011;73692;49.562;11.144;2024-02-14T04:29:46;6.65;;;3.40;;
83707;SDS011;73692;49.562;11.144;2024-02-14T04:32:12;6.15;;;3.85;;
83707;SDS011;73692;49.562;11.144;2024-02-14T04:34:38;5.32;;;2.95;;
83707;SDS011;73692;49.562;11.144;2024-02-14T04:37:04;6.25;;;3.20;;
83707;SDS011;73692;49.562;11.144;2024-02-14T04:39:35;6.60;;;3.05;;
83707;SDS011;73692;49.562;11.144;2024-02-14T04:42:03;6.25;;;3.03;;
83707;SDS011;73692;49.562;11.144;2024-02-14T04:44:29;6.50;;;3.42;;
83707;SDS011;73692;49.562;11.144;2024-02-14T04:46:56;7.03;;;3.55;;
83707;SDS011;73692;49.562;11.144;2024-02-14T04:49:23;6.60;;;3.38;;
83707;SDS011;73692;49.562;11.144;2024-02-14T04:51:48;6.03;;;2.75;;
83707;SDS011;73692;49.562;11.144;2024-02-14T04:54:13;5.22;;;3.03;;
83707;SDS011;73692;49.562;11.144;2024-02-14T04:56:41;9.23;;;3.63;;
83707;SDS011;73692;49.562;11.144;2024-02-14T05:01:33;10.00;;;4.00;;
83707;SDS011;73692;49.562;11.144;2024-02-14T05:03:58;11.20;;;3.92;;
83707;SDS011;73692;49.562;11.144;2024-02-14T05:06:24;8.05;;;3.95;;
83707;SDS011;73692;49.562;11.144;2024-02-14T05:08:49;5.85;;;3.45;;
83707;SDS011;73692;49.562;11.144;2024-02-14T05:11:16;8.15;;;3.13;;
83707;SDS011;73692;49.562;11.144;2024-02-14T05:13:41;7.07;;;4.53;;
83707;SDS011;73692;49.562;11.144;2024-02-14T05:16:07;9.18;;;3.60;;
83707;SDS011;73692;49.562;11.144;2024-02-14T05:18:35;6.68;;;4.10;;
83707;SDS011;73692;49.562;11.144;2024-02-14T05:21:01;9.90;;;4.03;;
83707;SDS011;73692;49.562;11.144;2024-02-14T05:23:27;7.28;;;4.38;;
83707;SDS011;73692;49.562;11.144;2024-02-14T05:25:53;5.47;;;3.58;;
83707;SDS011;73692;49.562;11.144;2024-02-14T05:28:18;6.80;;;3.50;;
83707;SDS011;73692;49.562;11.144;2024-02-14T05:30:44;5.82;;;3.42;;
83707;SDS011;73692;49.562;11.144;2024-02-14T05:33:09;6.28;;;3.70;;
83707;SDS011;73692;49.562;11.144;2024-02-14T05:38:01;9.43;;;3.90;;
83707;SDS011;73692;49.562;11.144;2024-02-14T05:40:26;7.60;;;4.05;;
83707;SDS011;73692;49.562;11.144;2024-02-14T05:42:51;9.30;;;4.65;;
83707;SDS011;73692;49.562;11.144;2024-02-14T05:45:17;7.22;;;3.47;;
83707;SDS011;73692;49.562;11.144;2024-02-14T05:47:42;8.60;;;4.23;;
83707;SDS011;73692;49.562;11.144;2024-02-14T05:50:08;10.25;;;4.65;;
83707;SDS011;73692;49.562;11.144;2024-02-14T05:52:34;7.40;;;3.58;;
83707;SDS011;73692;49.562;11.144;2024-02-14T05:54:59;7.90;;;4.07;;
83707;SDS011;73692;49.562;11.144;2024-02-14T05:57:25;10.38;;;3.75;;
83707;SDS011;73692;49.562;11.144;2024-02-14T05:59:51;7.35;;;4.00;;
83707;SDS011;73692;49.562;11.144;2024-02-14T06:02:16;7.00;;;3.95;;
83707;SDS011;73692;49.562;11.144;2024-02-14T06:04:41;6.82;;;4.43;;
83707;SDS011;73692;49.562;11.144;2024-02-14T06:07:07;8.80;;;4.50;;
83707;SDS011;73692;49.562;11.144;2024-02-14T06:09:35;7.32;;;3.60;;
83707;SDS011;73692;49.562;11.144;2024-02-14T06:12:00;11.25;;;4.55;;
83707;SDS011;73692;49.562;11.144;2024-02-14T06:14:25;11.15;;;4.40;;
83707;SDS011;73692;49.562;11.144;2024-02-14T06:16:51;9.63;;;4.05;;
83707;SDS011;73692;49.562;11.144;2024-02-14T06:19:17;6.43;;;3.67;;
83707;SDS011;73692;49.562;11.144;2024-02-14T06:21:42;6.70;;;3.78;;
83707;SDS011;73692;49.562;11.144;2024-02-14T06:24:07;9.32;;;4.32;;
83707;SDS011;73692;49.562;11.144;2024-02-14T06:26:35;9.13;;;3.92;;
83707;SDS011;73692;49.562;11.144;2024-02-14T06:29:00;12.02;;;4.22;;
83707;SDS011;73692;49.562;11.144;2024-02-14T06:31:26;9.73;;;4.33;;
83707;SDS011;73692;49.562;11.144;2024-02-14T06:33:51;10.38;;;4.00;;
83707;SDS011;73692;49.562;11.144;2024-02-14T06:36:16;8.48;;;3.75;;
83707;SDS011;73692;49.562;11.144;2024-02-14T06:38:41;9.98;;;3.95;;
83707;SDS011;73692;49.562;11.144;2024-02-14T06:41:07;6.88;;;3.53;;
83707;SDS011;73692;49.562;11.144;2024-02-14T06:43:32;7.50;;;4.03;;
83707;SDS011;73692;49.562;11.144;2024-02-14T06:45:57;7.77;;;4.00;;
83707;SDS011;73692;49.562;11.144;2024-02-14T06:48:23;7.40;;;3.67;;
83707;SDS011;73692;49.562;11.144;2024-02-14T06:50:50;7.50;;;3.78;;
83707;SDS011;73692;49.562;11.144;2024-02-14T06:55:40;7.93;;;3.57;;
83707;SDS011;73692;49.562;11.144;2024-02-14T06:58:06;10.67;;;4.00;;
83707;SDS011;73692;49.562;11.144;2024-02-14T07:00:31;6.45;;;3.40;;
83707;SDS011;73692;49.562;11.144;2024-02-14T07:02:56;6.47;;;3.50;;
83707;SDS011;73692;49.562;11.144;2024-02-14T07:05:22;6.23;;;3.33;;
83707;SDS011;73692;49.562;11.144;2024-02-14T07:07:47;8.98;;;4.00;;
83707;SDS011;73692;49.562;11.144;2024-02-14T07:10:12;8.10;;;3.60;;
83707;SDS011;73692;49.562;11.144;2024-02-14T07:15:03;6.87;;;3.90;;
83707;SDS011;73692;49.562;11.144;2024-02-14T07:17:30;8.25;;;3.50;;
83707;SDS011;73692;49.562;11.144;2024-02-14T07:19:55;11.98;;;5.18;;
83707;SDS011;73692;49.562;11.144;2024-02-14T07:24:46;8.07;;;3.17;;
83707;SDS011;73692;49.562;11.144;2024-02-14T07:29:37;7.53;;;3.50;;
83707;SDS011;73692;49.562;11.144;2024-02-14T07:32:02;8.25;;;3.70;;
83707;SDS011;73692;49.562;11.144;2024-02-14T07:34:28;8.77;;;3.58;;
83707;SDS011;73692;49.562;11.144;2024-02-14T07:39:19;7.63;;;3.60;;
83707;SDS011;73692;49.562;11.144;2024-02-14T07:41:44;8.37;;;4.00;;
83707;SDS011;73692;49.562;11.144;2024-02-14T07:44:09;6.10;;;3.33;;
83707;SDS011;73692;49.562;11.144;2024-02-14T07:46:35;7.78;;;4.03;;
83707;SDS011;73692;49.562;11.144;2024-02-14T07:51:25;7.63;;;3.60;;
83707;SDS011;73692;49.562;11.144;2024-02-14T07:53:51;8.07;;;4.22;;
83707;SDS011;73692;49.562;11.144;2024-02-14T07:58:43;7.15;;;4.05;;
83707;SDS011;73692;49.562;11.144;2024-02-14T08:01:08;10.15;;;3.88;;
83707;SDS011;73692;49.562;11.144;2024-02-14T08:03:34;5.60;;;3.42;;
83707;SDS011;73692;49.562;11.144;2024-02-14T08:08:25;6.32;;;3.70;;
83707;SDS011;73692;49.562;11.144;2024-02-14T08:10:52;6.78;;;3.67;;
83707;SDS011;73692;49.562;11.144;2024-02-14T08:15:43;8.90;;;4.18;;
83707;SDS011;73692;49.562;11.144;2024-02-14T08:18:08;6.20;;;3.40;;
83707;SDS011;73692;49.562;11.144;2024-02-14T08:22:59;6.80;;;3.67;;
83707;SDS011;73692;49.562;11.144;2024-02-14T08:27:49;7.77;;;3.23;;
83707;SDS011;73692;49.562;11.144;2024-02-14T08:30:16;5.97;;;4.13;;
83707;SDS011;73692;49.562;11.144;2024-02-14T08:35:07;6.90;;;3.78;;
83707;SDS011;73692;49.562;11.144;2024-02-14T08:37:34;8.85;;;4.07;;
83707;SDS011;73692;49.562;11.144;2024-02-14T08:40:02;7.45;;;3.38;;
83707;SDS011;73692;49.562;11.144;2024-02-14T08:42:30;9.10;;;3.25;;
83707;SDS011;73692;49.562;11.144;2024-02-14T08:47:21;6.40;;;3.87;;
83707;SDS011;73692;49.562;11.144;2024-02-14T08:52:11;8.57;;;4.80;;
83707;SDS011;73692;49.562;11.144;2024-02-14T08:57:02;6.60;;;3.57;;
83707;SDS011;73692;49.562;11.144;2024-02-14T09:01:53;8.83;;;4.50;;
83707;SDS011;73692;49.562;11.144;2024-02-14T09:04:18;7.55;;;4.70;;
83707;SDS011;73692;49.562;11.144;2024-02-14T09:09:09;6.33;;;4.00;;
83707;SDS011;73692;49.562;11.144;2024-02-14T09:11:35;9.43;;;4.50;;
83707;SDS011;73692;49.562;11.144;2024-02-14T09:18:59;7.30;;;3.65;;
83707;SDS011;73692;49.562;11.144;2024-02-14T09:21:26;7.35;;;3.88;;
83707;SDS011;73692;49.562;11.144;2024-02-14T09:23:52;9.90;;;4.25;;
83707;SDS011;73692;49.562;11.144;2024-02-14T09:28:43;7.60;;;4.00;;
83707;SDS011;73692;49.562;11.144;2024-02-14T09:33:36;7.32;;;3.88;;
83707;SDS011;73692;49.562;11.144;2024-02-14T09:36:05;7.70;;;3.70;;
83707;SDS011;73692;49.562;11.144;2024-02-14T09:41:06;6.88;;;3.40;;
83707;SDS011;73692;49.562;11.144;2024-02-14T09:43:46;7.75;;;3.95;;
83707;SDS011;73692;49.562;11.144;2024-02-14T09:48:37;6.25;;;3.67;;
83707;SDS011;73692;49.562;11.144;2024-02-14T09:53:28;5.77;;;3.60;;
83707;SDS011;73692;49.562;11.144;2024-02-14T09:55:54;9.13;;;3.80;;
83707;SDS011;73692;49.562;11.144;2024-02-14T10:00:45;6.70;;;3.47;;
83707;SDS011;73692;49.562;11.144;2024-02-14T10:03:10;6.97;;;3.13;;
83707;SDS011;73692;49.562;11.144;2024-02-14T10:08:01;6.53;;;3.10;;
83707;SDS011;73692;49.562;11.144;2024-02-14T10:12:54;6.35;;;3.03;;
83707;SDS011;73692;49.562;11.144;2024-02-14T10:15:20;4.70;;;3.08;;
83707;SDS011;73692;49.562;11.144;2024-02-14T10:20:10;6.73;;;3.23;;
83707;SDS011;73692;49.562;11.144;2024-02-14T10:25:02;6.88;;;2.83;;
83707;SDS011;73692;49.562;11.144;2024-02-14T10:27:29;9.45;;;2.83;;
83707;SDS011;73692;49.562;11.144;2024-02-14T10:29:56;5.22;;;2.63;;
83707;SDS011;73692;49.562;11.144;2024-02-14T10:34:48;7.57;;;3.00;;
83707;SDS011;73692;49.562;11.144;2024-02-14T10:39:39;5.53;;;2.63;;
83707;SDS011;73692;49.562;11.144;2024-02-14T10:42:06;6.50;;;2.92;;
83707;SDS011;73692;49.562;11.144;2024-02-14T10:46:57;7.13;;;3.33;;
83707;SDS011;73692;49.562;11.144;2024-02-14T10:49:25;7.60;;;3.10;;
83707;SDS011;73692;49.562;11.144;2024-02-14T10:51:53;6.47;;;2.75;;
83707;SDS011;73692;49.562;11.144;2024-02-14T10:56:45;7.03;;;2.40;;
83707;SDS011;73692;49.562;11.144;2024-02-14T10:59:15;4.55;;;2.70;;
83707;SDS011;73692;49.562;11.144;2024-02-14T11:01:42;5.13;;;2.58;;
83707;SDS011;73692;49.562;11.144;2024-02-14T11:06:51;4.60;;;2.83;;
83707;SDS011;73692;49.562;11.144;2024-02-14T11:09:19;12.80;;;2.50;;
83707;SDS011;73692;49.562;11.144;2024-02-14T11:14:09;5.63;;;2.67;;
83707;SDS011;73692;49.562;11.144;2024-02-14T11:16:37;4.50;;;2.10;;
83707;SDS011;73692;49.562;11.144;2024-02-14T11:21:41;4.57;;;2.03;;
83707;SDS011;73692;49.562;11.144;2024-02-14T11:24:11;5.22;;;2.40;;
83707;SDS011;73692;49.562;11.144;2024-02-14T11:26:58;5.50;;;1.92;;
83707;SDS011;73692;49.562;11.144;2024-02-14T11:29:28;5.47;;;2.63;;
83707;SDS011;73692;49.562;11.144;2024-02-14T11:31:57;6.82;;;2.47;;
83707;SDS011;73692;49.562;11.144;2024-02-14T11:34:24;4.50;;;2.17;;
83707;SDS011;73692;49.562;11.144;2024-02-14T11:39:14;6.27;;;2.90;;
83707;SDS011;73692;49.562;11.144;2024-02-14T11:44:07;8.63;;;2.95;;
83707;SDS011;73692;49.562;11.144;2024-02-14T11:48:59;5.75;;;2.70;;
83707;SDS011;73692;49.562;11.144;2024-02-14T11:51:26;4.85;;;2.47;;
83707;SDS011;73692;49.562;11.144;2024-02-14T11:53:52;6.25;;;2.63;;
83707;SDS011;73692;49.562;11.144;2024-02-14T11:58:43;5.53;;;2.50;;
83707;SDS011;73692;49.562;11.144;2024-02-14T12:03:34;6.13;;;2.25;;
83707;SDS011;73692;49.562;11.144;2024-02-14T12:08:27;7.13;;;2.47;;
83707;SDS011;73692;49.562;11.144;2024-02-14T12:13:19;6.33;;;2.23;;
83707;SDS011;73692;49.562;11.144;2024-02-14T12:15:46;8.35;;;2.58;;
83707;SDS011;73692;49.562;11.144;2024-02-14T12:18:13;4.30;;;1.73;;
83707;SDS011;73692;49.562;11.144;2024-02-14T12:20:41;5.03;;;1.60;;
83707;SDS011;73692;49.562;11.144;2024-02-14T12:23:07;5.40;;;2.17;;
83707;SDS011;73692;49.562;11.144;2024-02-14T12:27:58;6.07;;;2.13;;
83707;SDS011;73692;49.562;11.144;2024-02-14T12:32:59;3.88;;;1.58;;
83707;SDS011;73692;49.562;11.144;2024-02-14T12:37:50;2.42;;;1.30;;
83707;SDS011;73692;49.562;11.144;2024-02-14T12:42:41;5.90;;;1.55;;
83707;SDS011;73692;49.562;11.144;2024-02-14T12:47:32;4.65;;;1.85;;
83707;SDS011;73692;49.562;11.144;2024-02-14T12:49:59;4.43;;;1.45;;
83707;SDS011;73692;49.562;11.144;2024-02-14T12:54:50;3.57;;;1.10;;
83707;SDS011;73692;49.562;11.144;2024-02-14T12:59:40;3.53;;;1.03;;
83707;SDS011;73692;49.562;11.144;2024-02-14T13:04:31;2.07;;;0.90;;
83707;SDS011;73692;49.562;11.144;2024-02-14T13:09:22;4.67;;;1.70;;
83707;SDS011;73692;49.562;11.144;2024-02-14T13:14:13;2.40;;;0.90;;
83707;SDS011;73692;49.562;11.144;2024-02-14T13:16:39;2.75;;;1.02;;
83707;SDS011;73692;49.562;11.144;2024-02-14T13:21:30;5.00;;;1.40;;
83707;SDS011;73692;49.562;11.144;2024-02-14T13:23:56;3.65;;;1.15;;
83707;SDS011;73692;49.562;11.144;2024-02-14T13:28:47;2.57;;;0.80;;
83707;SDS011;73692;49.562;11.144;2024-02-14T13:31:12;2.78;;;1.35;;
83707;SDS011;73692;49.562;11.144;2024-02-14T13:36:03;3.50;;;1.00;;
83707;SDS011;73692;49.562;11.144;2024-02-14T13:40:54;2.23;;;0.80;;
83707;SDS011;73692;49.562;11.144;2024-02-14T13:45:44;2.73;;;1.07;;
83707;SDS011;73692;49.562;11.144;2024-02-14T13:48:11;3.17;;;1.30;;
83707;SDS011;73692;49.562;11.144;2024-02-14T13:53:02;5.32;;;1.55;;
83707;SDS011;73692;49.562;11.144;2024-02-14T13:57:53;2.60;;;1.00;;
83707;SDS011;73692;49.562;11.144;2024-02-14T14:02:44;2.40;;;1.03;;
83707;SDS011;73692;49.562;11.144;2024-02-14T14:07:38;3.78;;;0.98;;
83707;SDS011;73692;49.562;11.144;2024-02-14T14:10:08;2.97;;;1.20;;
83707;SDS011;73692;49.562;11.144;2024-02-14T14:12:34;3.15;;;1.08;;
83707;SDS011;73692;49.562;11.144;2024-02-14T14:17:25;3.83;;;1.40;;
83707;SDS011;73692;49.562;11.144;2024-02-14T14:22:16;4.13;;;1.83;;
83707;SDS011;73692;49.562;11.144;2024-02-14T14:24:42;2.97;;;1.42;;
83707;SDS011;73692;49.562;11.144;2024-02-14T14:29:34;2.38;;;1.20;;
83707;SDS011;73692;49.562;11.144;2024-02-14T14:34:25;5.07;;;1.70;;
83707;SDS011;73692;49.562;11.144;2024-02-14T14:36:52;5.40;;;1.55;;
83707;SDS011;73692;49.562;11.144;2024-02-14T14:41:51;4.23;;;1.67;;
83707;SDS011;73692;49.562;11.144;2024-02-14T14:44:19;5.93;;;1.85;;
83707;SDS011;73692;49.562;11.144;2024-02-14T14:49:09;2.80;;;1.53;;
83707;SDS011;73692;49.562;11.144;2024-02-14T14:54:00;3.47;;;1.73;;
83707;SDS011;73692;49.562;11.144;2024-02-14T14:58:52;3.72;;;1.55;;
83707;SDS011;73692;49.562;11.144;2024-02-14T15:03:43;3.87;;;1.60;;
83707;SDS011;73692;49.562;11.144;2024-02-14T15:06:08;3.25;;;1.58;;
83707;SDS011;73692;49.562;11.144;2024-02-14T15:10:59;2.57;;;1.27;;
83707;SDS011;73692;49.562;11.144;2024-02-14T15:13:25;4.65;;;1.83;;
83707;SDS011;73692;49.562;11.144;2024-02-14T15:18:16;5.15;;;1.80;;
83707;SDS011;73692;49.562;11.144;2024-02-14T15:20:41;2.58;;;1.35;;
83707;SDS011;73692;49.562;11.144;2024-02-14T15:23:07;4.20;;;1.75;;
83707;SDS011;73692;49.562;11.144;2024-02-14T15:25:34;4.47;;;1.75;;
83707;SDS011;73692;49.562;11.144;2024-02-14T15:28:06;4.45;;;1.70;;
83707;SDS011;73692;49.562;11.144;2024-02-14T15:30:37;4.25;;;1.75;;
83707;SDS011;73692;49.562;11.144;2024-02-14T15:35:51;3.88;;;1.60;;
83707;SDS011;73692;49.562;11.144;2024-02-14T15:38:17;5.45;;;1.80;;
83707;SDS011;73692;49.562;11.144;2024-02-14T15:40:47;4.93;;;2.00;;
83707;SDS011;73692;49.562;11.144;2024-02-14T15:43:15;4.30;;;1.98;;
83707;SDS011;73692;49.562;11.144;2024-02-14T15:45:41;6.18;;;2.10;;
83707;SDS011;73692;49.562;11.144;2024-02-14T15:50:32;3.05;;;1.63;;
83707;SDS011;73692;49.562;11.144;2024-02-14T15:55:23;4.43;;;1.40;;
83707;SDS011;73692;49.562;11.144;2024-02-14T16:00:14;3.17;;;1.90;;
83707;SDS011;73692;49.562;11.144;2024-02-14T16:05:05;3.13;;;1.70;;
83707;SDS011;73692;49.562;11.144;2024-02-14T16:07:33;5.13;;;1.83;;
83707;SDS011;73692;49.562;11.144;2024-02-14T16:12:24;5.43;;;2.47;;
83707;SDS011;73692;49.562;11.144;2024-02-14T16:14:51;6.07;;;1.85;;
83707;SDS011;73692;49.562;11.144;2024-02-14T16:19:41;3.10;;;1.60;;
83707;SDS011;73692;49.562;11.144;2024-02-14T16:24:32;3.37;;;1.50;;
83707;SDS011;73692;49.562;11.144;2024-02-14T16:29:23;4.40;;;2.20;;
83707;SDS011;73692;49.562;11.144;2024-02-14T16:31:49;3.72;;;1.83;;
83707;SDS011;73692;49.562;11.144;2024-02-14T16:36:39;6.30;;;3.00;;
83707;SDS011;73692;49.562;11.144;2024-02-14T16:41:31;5.57;;;2.38;;
83707;SDS011;73692;49.562;11.144;2024-02-14T16:46:22;4.97;;;2.42;;
83707;SDS011;73692;49.562;11.144;2024-02-14T16:51:13;5.37;;;2.10;;
83707;SDS011;73692;49.562;11.144;2024-02-14T16:53:41;4.40;;;1.70;;
83707;SDS011;73692;49.562;11.144;2024-02-14T16:56:07;4.07;;;2.40;;
83707;SDS011;73692;49.562;11.144;2024-02-14T17:00:58;3.40;;;1.85;;
83707;SDS011;73692;49.562;11.144;2024-02-14T17:05:48;12.50;;;6.13;;
83707;SDS011;73692;49.562;11.144;2024-02-14T17:08:14;7.53;;;4.17;;
83707;SDS011;73692;49.562;11.144;2024-02-14T17:13:04;5.10;;;2.13;;
83707;SDS011;73692;49.562;11.144;2024-02-14T17:17:55;6.17;;;2.30;;
83707;SDS011;73692;49.562;11.144;2024-02-14T17:22:46;7.90;;;3.30;;
83707;SDS011;73692;49.562;11.144;2024-02-14T17:27:36;7.67;;;2.77;;
83707;SDS011;73692;49.562;11.144;2024-02-14T17:32:32;18.00;;;8.98;;
83707;SDS011;73692;49.562;11.144;2024-02-14T17:37:23;17.17;;;8.02;;
83707;SDS011;73692;49.562;11.144;2024-02-14T17:42:14;4.30;;;2.50;;
83707;SDS011;73692;49.562;11.144;2024-02-14T17:47:05;3.67;;;2.07;;
83707;SDS011;73692;49.562;11.144;2024-02-14T17:51:56;3.93;;;1.80;;
83707;SDS011;73692;49.562;11.144;2024-02-14T17:54:23;2.30;;;1.35;;
83707;SDS011;73692;49.562;11.144;2024-02-14T17:59:14;2.60;;;1.30;;
83707;SDS011;73692;49.562;11.144;2024-02-14T18:04:06;3.08;;;1.05;;
83707;SDS011;73692;49.562;11.144;2024-02-14T18:08:57;4.60;;;2.20;;
83707;SDS011;73692;49.562;11.144;2024-02-14T18:11:23;8.38;;;4.18;;
83707;SDS011;73692;49.562;11.144;2024-02-14T18:13:49;4.68;;;2.00;;
83707;SDS011;73692;49.562;11.144;2024-02-14T18:16:17;5.75;;;1.80;;
83707;SDS011;73692;49.562;11.144;2024-02-14T18:18:43;3.72;;;1.70;;
83707;SDS011;73692;49.562;11.144;2024-02-14T18:21:10;4.38;;;1.73;;
83707;SDS011;73692;49.562;11.144;2024-02-14T18:26:02;8.32;;;1.70;;
83707;SDS011;73692;49.562;11.144;2024-02-14T18:30:55;4.40;;;1.60;;
83707;SDS011;73692;49.562;11.144;2024-02-14T18:35:46;4.53;;;1.47;;
83707;SDS011;73692;49.562;11.144;2024-02-14T18:40:36;4.60;;;1.83;;
83707;SDS011;73692;49.562;11.144;2024-02-14T18:43:03;4.53;;;2.00;;
83707;SDS011;73692;49.562;11.144;2024-02-14T18:47:53;4.00;;;2.00;;
83707;SDS011;73692;49.562;11.144;2024-02-14T18:50:19;4.93;;;1.75;;
83707;SDS011;73692;49.562;11.144;2024-02-14T18:52:44;3.80;;;1.80;;